River & Lake Conditions

Stages:
  • Latest Observation

    Normal Stage: 8.69 ft2.6 m

    Flow: 114 kcfs
    Impacts: The Corps will not allow the pool level to drop below 8.5 feet (higher flows below 100K). At low flows, they allow a 2-foot variation between 11.0 and 13.0 feet. At higher flows below 100K, the range is actually lower, between 8.5 and 10.5 feet. Above 110K cfs, the gates are raised above the water surface, allowing open river conditions.
  • Stages

Stage Date Flow
9.90 ft3.02 mForecast 04/05/2017 06:00 pm 133.000 kcfs
10.00 ft3.05 mForecast 04/05/2017 12:00 pm 134.000 kcfs
10.00 ft3.05 mForecast 04/05/2017 06:00 am 134.000 kcfs
10.10 ft3.08 mForecast 04/05/2017 12:00 am 136.000 kcfs
10.10 ft3.08 mForecast 04/04/2017 06:00 pm 136.000 kcfs
10.10 ft3.08 mForecast 04/04/2017 12:00 pm 136.000 kcfs
10.10 ft3.08 mForecast 04/04/2017 06:00 am 136.000 kcfs
10.10 ft3.08 mForecast 04/04/2017 12:00 am 136.000 kcfs
10.10 ft3.08 mForecast 04/03/2017 06:00 pm 136.000 kcfs
10.10 ft3.08 mForecast 04/03/2017 12:00 pm 136.000 kcfs
10.10 ft3.08 mForecast 04/03/2017 06:00 am 136.000 kcfs
10.10 ft3.08 mForecast 04/03/2017 12:00 am 136.000 kcfs
10.00 ft3.05 mForecast 04/02/2017 06:00 pm 134.000 kcfs
10.00 ft3.05 mForecast 04/02/2017 12:00 pm 134.000 kcfs
9.90 ft3.02 mForecast 04/02/2017 06:00 am 133.000 kcfs
9.90 ft3.02 mForecast 04/02/2017 12:00 am 133.000 kcfs
9.80 ft2.99 mForecast 04/01/2017 06:00 pm 131.000 kcfs
9.70 ft2.96 mForecast 04/01/2017 12:00 pm 129.000 kcfs
9.70 ft2.96 mForecast 04/01/2017 06:00 am 129.000 kcfs
9.60 ft2.93 mForecast 04/01/2017 12:00 am 128.000 kcfs
9.50 ft2.90 mForecast 03/31/2017 06:00 pm 126.000 kcfs
9.30 ft2.83 mForecast 03/31/2017 12:00 pm 123.000 kcfs
9.20 ft2.80 mForecast 03/31/2017 06:00 am 122.000 kcfs
9.00 ft2.74 mForecast 03/31/2017 12:00 am 118.000 kcfs
8.90 ft2.71 mForecast 03/30/2017 06:00 pm 117.000 kcfs
8.80 ft2.68 mForecast 03/30/2017 12:00 pm 115.000 kcfs
8.80 ft2.68 mForecast 03/30/2017 06:00 am 115.000 kcfs
8.80 ft2.68 mForecast 03/30/2017 12:00 am 115.000 kcfs
8.80 ft2.68 mForecast 03/29/2017 06:00 pm 115.000 kcfs
8.80 ft2.68 mForecast 03/29/2017 12:00 pm 115.000 kcfs
8.80 ft2.68 mForecast 03/29/2017 06:00 am 115.000 kcfs
8.69 ft2.68 m 03/28/2017 11:00 pm 114.000 kcfs
8.70 ft2.68 m 03/28/2017 09:00 pm 114.000 kcfs
8.70 ft2.68 m 03/28/2017 07:00 pm 114.000 kcfs
8.71 ft2.68 m 03/28/2017 05:00 pm 114.000 kcfs
8.64 ft2.68 m 03/28/2017 03:00 pm 113.000 kcfs
8.69 ft2.68 m 03/28/2017 01:00 pm 114.000 kcfs
8.72 ft2.68 m 03/28/2017 11:00 am 114.000 kcfs
8.64 ft2.68 m 03/28/2017 09:00 am 113.000 kcfs
8.65 ft2.68 m 03/28/2017 07:00 am 113.000 kcfs
8.60 ft2.68 m 03/28/2017 05:00 am 112.000 kcfs
8.63 ft2.68 m 03/28/2017 03:00 am 113.000 kcfs
8.59 ft2.68 m 03/28/2017 01:00 am 112.000 kcfs
8.61 ft2.68 m 03/27/2017 11:00 pm 112.000 kcfs
8.58 ft2.68 m 03/27/2017 09:00 pm 112.000 kcfs
8.58 ft2.68 m 03/27/2017 07:00 pm 112.000 kcfs
8.56 ft2.68 m 03/27/2017 05:00 pm 112.000 kcfs
8.53 ft2.68 m 03/27/2017 03:00 pm 111.000 kcfs
8.50 ft2.68 m 03/27/2017 01:00 pm 111.000 kcfs
8.47 ft2.68 m 03/27/2017 11:00 am 110.000 kcfs
8.42 ft2.68 m 03/27/2017 09:00 am 109.000 kcfs
8.35 ft2.68 m 03/27/2017 07:00 am 108.000 kcfs
8.33 ft2.68 m 03/27/2017 05:23 am 108.000 kcfs
8.35 ft2.68 m 03/27/2017 05:00 am 108.000 kcfs
8.34 ft2.68 m 03/27/2017 03:00 am 108.000 kcfs
8.31 ft2.68 m 03/27/2017 01:00 am 108.000 kcfs
8.32 ft2.68 m 03/26/2017 11:00 pm 108.000 kcfs
8.24 ft2.68 m 03/26/2017 09:00 pm 107.000 kcfs
8.34 ft2.68 m 03/26/2017 07:00 pm 108.000 kcfs
8.32 ft2.68 m 03/26/2017 05:00 pm 108.000 kcfs
8.35 ft2.68 m 03/26/2017 03:00 pm 108.000 kcfs
8.34 ft2.68 m 03/26/2017 01:00 pm 108.000 kcfs